sensor_id;sensor_type;location;lat;lon;timestamp;pressure;altitude;pressure_sealevel;temperature;humidity
66681;BME280;53575;51.366;12.350;2023-02-14T00:00:16;102427.66;;;4.26;100.00
66681;BME280;53575;51.366;12.350;2023-02-14T00:02:41;102428.38;;;4.23;100.00
66681;BME280;53575;51.366;12.350;2023-02-14T00:05:07;102430.41;;;4.12;100.00
66681;BME280;53575;51.366;12.350;2023-02-14T00:07:32;102428.94;;;4.18;100.00
66681;BME280;53575;51.366;12.350;2023-02-14T00:09:58;102435.47;;;4.11;100.00
66681;BME280;53575;51.366;12.350;2023-02-14T00:12:23;102433.06;;;4.14;100.00
66681;BME280;53575;51.366;12.350;2023-02-14T00:14:49;102432.16;;;4.13;100.00
66681;BME280;53575;51.366;12.350;2023-02-14T00:17:32;102433.88;;;4.13;100.00
66681;BME280;53575;51.366;12.350;2023-02-14T00:19:58;102434.34;;;4.06;100.00
66681;BME280;53575;51.366;12.350;2023-02-14T00:22:23;102431.41;;;4.00;100.00
66681;BME280;53575;51.366;12.350;2023-02-14T00:24:49;102429.63;;;3.99;100.00
66681;BME280;53575;51.366;12.350;2023-02-14T00:27:14;102430.13;;;4.08;100.00
66681;BME280;53575;51.366;12.350;2023-02-14T00:29:40;102423.59;;;3.98;100.00
66681;BME280;53575;51.366;12.350;2023-02-14T00:32:05;102418.94;;;3.92;100.00
66681;BME280;53575;51.366;12.350;2023-02-14T00:34:31;102420.41;;;4.04;100.00
66681;BME280;53575;51.366;12.350;2023-02-14T00:36:57;102421.53;;;3.92;100.00
66681;BME280;53575;51.366;12.350;2023-02-14T00:39:23;102425.28;;;3.98;100.00
66681;BME280;53575;51.366;12.350;2023-02-14T00:41:48;102420.09;;;3.98;100.00
66681;BME280;53575;51.366;12.350;2023-02-14T00:44:14;102415.81;;;3.98;100.00
66681;BME280;53575;51.366;12.350;2023-02-14T00:46:39;102422.94;;;4.02;100.00
66681;BME280;53575;51.366;12.350;2023-02-14T00:49:05;102422.75;;;3.99;100.00
66681;BME280;53575;51.366;12.350;2023-02-14T00:51:30;102420.34;;;4.02;100.00
66681;BME280;53575;51.366;12.350;2023-02-14T00:53:56;102421.16;;;4.01;100.00
66681;BME280;53575;51.366;12.350;2023-02-14T00:56:21;102418.88;;;4.07;100.00
66681;BME280;53575;51.366;12.350;2023-02-14T00:58:47;102419.53;;;4.03;100.00
66681;BME280;53575;51.366;12.350;2023-02-14T01:01:14;102418.16;;;3.94;100.00
66681;BME280;53575;51.366;12.350;2023-02-14T01:03:40;102422.34;;;3.91;100.00
66681;BME280;53575;51.366;12.350;2023-02-14T01:06:06;102421.47;;;3.91;100.00
66681;BME280;53575;51.366;12.350;2023-02-14T01:08:32;102423.56;;;3.82;100.00
66681;BME280;53575;51.366;12.350;2023-02-14T01:11:01;102423.91;;;3.73;100.00
66681;BME280;53575;51.366;12.350;2023-02-14T01:13:30;102419.09;;;3.79;100.00
66681;BME280;53575;51.366;12.350;2023-02-14T01:15:55;102413.28;;;3.83;100.00
66681;BME280;53575;51.366;12.350;2023-02-14T01:18:21;102408.75;;;3.79;100.00
66681;BME280;53575;51.366;12.350;2023-02-14T01:20:46;102406.81;;;3.75;100.00
66681;BME280;53575;51.366;12.350;2023-02-14T01:23:12;102407.34;;;3.70;100.00
66681;BME280;53575;51.366;12.350;2023-02-14T01:25:38;102410.38;;;3.62;100.00
66681;BME280;53575;51.366;12.350;2023-02-14T01:28:04;102404.50;;;3.65;100.00
66681;BME280;53575;51.366;12.350;2023-02-14T01:30:30;102411.94;;;3.59;100.00
66681;BME280;53575;51.366;12.350;2023-02-14T01:32:55;102405.22;;;3.62;100.00
66681;BME280;53575;51.366;12.350;2023-02-14T01:35:21;102401.84;;;3.63;100.00
66681;BME280;53575;51.366;12.350;2023-02-14T01:37:46;102398.63;;;3.67;100.00
66681;BME280;53575;51.366;12.350;2023-02-14T01:40:12;102390.22;;;3.72;100.00
66681;BME280;53575;51.366;12.350;2023-02-14T01:42:38;102388.09;;;3.64;100.00
66681;BME280;53575;51.366;12.350;2023-02-14T01:45:30;102392.22;;;3.61;100.00
66681;BME280;53575;51.366;12.350;2023-02-14T01:47:56;102388.03;;;3.63;100.00
66681;BME280;53575;51.366;12.350;2023-02-14T01:50:32;102387.47;;;3.69;100.00
66681;BME280;53575;51.366;12.350;2023-02-14T01:53:05;102389.16;;;3.68;100.00
66681;BME280;53575;51.366;12.350;2023-02-14T01:55:35;102389.00;;;3.65;100.00
66681;BME280;53575;51.366;12.350;2023-02-14T01:58:14;102387.03;;;3.61;100.00
66681;BME280;53575;51.366;12.350;2023-02-14T02:00:42;102391.19;;;3.74;100.00
66681;BME280;53575;51.366;12.350;2023-02-14T02:03:30;102394.16;;;3.65;100.00
66681;BME280;53575;51.366;12.350;2023-02-14T02:06:16;102386.50;;;3.66;100.00
66681;BME280;53575;51.366;12.350;2023-02-14T02:11:50;102382.06;;;3.64;100.00
66681;BME280;53575;51.366;12.350;2023-02-14T02:14:18;102374.19;;;3.62;100.00
66681;BME280;53575;51.366;12.350;2023-02-14T02:22:51;102377.38;;;3.73;100.00
66681;BME280;53575;51.366;12.350;2023-02-14T02:36:26;102373.03;;;3.72;100.00
66681;BME280;53575;51.366;12.350;2023-02-14T02:46:51;102365.59;;;3.78;100.00
66681;BME280;53575;51.366;12.350;2023-02-14T02:49:45;102360.09;;;3.72;100.00
66681;BME280;53575;51.366;12.350;2023-02-14T02:56:04;102360.25;;;3.75;100.00
66681;BME280;53575;51.366;12.350;2023-02-14T02:58:55;102360.91;;;3.71;100.00
66681;BME280;53575;51.366;12.350;2023-02-14T03:01:34;102357.44;;;3.71;100.00
66681;BME280;53575;51.366;12.350;2023-02-14T03:04:04;102353.16;;;3.71;100.00
66681;BME280;53575;51.366;12.350;2023-02-14T03:06:50;102351.84;;;3.79;100.00
66681;BME280;53575;51.366;12.350;2023-02-14T03:14:54;102357.16;;;3.66;100.00
66681;BME280;53575;51.366;12.350;2023-02-14T03:17:35;102355.38;;;3.65;100.00
66681;BME280;53575;51.366;12.350;2023-02-14T03:20:23;102363.84;;;3.62;100.00
66681;BME280;53575;51.366;12.350;2023-02-14T03:23:26;102361.91;;;3.58;100.00
66681;BME280;53575;51.366;12.350;2023-02-14T03:31:37;102362.00;;;3.60;100.00
66681;BME280;53575;51.366;12.350;2023-02-14T03:36:53;102365.41;;;3.59;100.00
66681;BME280;53575;51.366;12.350;2023-02-14T03:39:38;102371.34;;;3.58;100.00
66681;BME280;53575;51.366;12.350;2023-02-14T03:42:07;102369.84;;;3.61;100.00
66681;BME280;53575;51.366;12.350;2023-02-14T03:44:36;102371.16;;;3.70;100.00
66681;BME280;53575;51.366;12.350;2023-02-14T03:47:15;102376.72;;;3.77;100.00
66681;BME280;53575;51.366;12.350;2023-02-14T03:49:47;102375.44;;;3.69;100.00
66681;BME280;53575;51.366;12.350;2023-02-14T03:52:15;102371.25;;;3.71;100.00
66681;BME280;53575;51.366;12.350;2023-02-14T03:54:44;102372.66;;;3.66;100.00
66681;BME280;53575;51.366;12.350;2023-02-14T03:57:22;102373.84;;;3.71;100.00
66681;BME280;53575;51.366;12.350;2023-02-14T03:59:49;102368.34;;;3.81;100.00
66681;BME280;53575;51.366;12.350;2023-02-14T04:02:30;102361.16;;;3.76;100.00
66681;BME280;53575;51.366;12.350;2023-02-14T04:04:58;102364.38;;;3.72;100.00
66681;BME280;53575;51.366;12.350;2023-02-14T04:07:25;102376.00;;;3.63;100.00
66681;BME280;53575;51.366;12.350;2023-02-14T04:09:51;102372.03;;;3.70;100.00
66681;BME280;53575;51.366;12.350;2023-02-14T04:12:18;102369.97;;;3.79;100.00
66681;BME280;53575;51.366;12.350;2023-02-14T04:14:43;102361.53;;;3.67;100.00
66681;BME280;53575;51.366;12.350;2023-02-14T04:17:09;102364.28;;;3.70;100.00
66681;BME280;53575;51.366;12.350;2023-02-14T04:19:55;102356.84;;;3.60;100.00
66681;BME280;53575;51.366;12.350;2023-02-14T04:22:20;102362.00;;;3.60;100.00
66681;BME280;53575;51.366;12.350;2023-02-14T04:24:45;102357.66;;;3.59;100.00
66681;BME280;53575;51.366;12.350;2023-02-14T04:27:11;102354.16;;;3.58;100.00
66681;BME280;53575;51.366;12.350;2023-02-14T04:29:45;102354.72;;;3.53;100.00
66681;BME280;53575;51.366;12.350;2023-02-14T04:32:13;102350.94;;;3.62;100.00
66681;BME280;53575;51.366;12.350;2023-02-14T04:34:40;102344.66;;;3.42;100.00
66681;BME280;53575;51.366;12.350;2023-02-14T04:37:06;102349.09;;;3.60;100.00
66681;BME280;53575;51.366;12.350;2023-02-14T04:39:32;102345.16;;;3.66;100.00
66681;BME280;53575;51.366;12.350;2023-02-14T04:41:58;102346.50;;;3.60;100.00
66681;BME280;53575;51.366;12.350;2023-02-14T04:44:23;102342.59;;;3.52;100.00
66681;BME280;53575;51.366;12.350;2023-02-14T04:46:50;102339.31;;;3.39;100.00
66681;BME280;53575;51.366;12.350;2023-02-14T04:49:15;102334.72;;;3.34;100.00
66681;BME280;53575;51.366;12.350;2023-02-14T04:51:41;102336.59;;;3.36;100.00
66681;BME280;53575;51.366;12.350;2023-02-14T04:54:07;102342.28;;;3.31;100.00
66681;BME280;53575;51.366;12.350;2023-02-14T04:56:32;102339.81;;;3.32;100.00
66681;BME280;53575;51.366;12.350;2023-02-14T04:58:59;102345.69;;;3.30;100.00
66681;BME280;53575;51.366;12.350;2023-02-14T05:01:24;102341.97;;;3.25;100.00
66681;BME280;53575;51.366;12.350;2023-02-14T05:03:50;102340.09;;;3.22;100.00
66681;BME280;53575;51.366;12.350;2023-02-14T05:06:15;102339.22;;;3.22;100.00
66681;BME280;53575;51.366;12.350;2023-02-14T05:08:40;102336.94;;;3.28;100.00
66681;BME280;53575;51.366;12.350;2023-02-14T05:11:06;102341.97;;;3.25;100.00
66681;BME280;53575;51.366;12.350;2023-02-14T05:13:31;102321.66;;;3.16;100.00
66681;BME280;53575;51.366;12.350;2023-02-14T05:15:57;102329.69;;;3.21;100.00
66681;BME280;53575;51.366;12.350;2023-02-14T05:18:23;102335.31;;;3.13;100.00
66681;BME280;53575;51.366;12.350;2023-02-14T05:20:49;102327.56;;;3.13;100.00
66681;BME280;53575;51.366;12.350;2023-02-14T05:23:15;102335.88;;;3.24;100.00
66681;BME280;53575;51.366;12.350;2023-02-14T05:25:41;102321.75;;;3.17;100.00
66681;BME280;53575;51.366;12.350;2023-02-14T05:28:07;102320.31;;;3.23;100.00
66681;BME280;53575;51.366;12.350;2023-02-14T05:30:33;102321.31;;;3.25;100.00
66681;BME280;53575;51.366;12.350;2023-02-14T05:32:59;102323.97;;;3.26;100.00
66681;BME280;53575;51.366;12.350;2023-02-14T05:35:25;102316.47;;;3.16;100.00
66681;BME280;53575;51.366;12.350;2023-02-14T05:37:50;102321.22;;;3.08;100.00
66681;BME280;53575;51.366;12.350;2023-02-14T05:40:15;102321.41;;;3.11;100.00
66681;BME280;53575;51.366;12.350;2023-02-14T05:42:42;102321.84;;;3.19;100.00
66681;BME280;53575;51.366;12.350;2023-02-14T05:45:08;102325.31;;;3.20;100.00
66681;BME280;53575;51.366;12.350;2023-02-14T05:47:34;102324.97;;;3.13;100.00
66681;BME280;53575;51.366;12.350;2023-02-14T05:49:59;102318.78;;;3.26;100.00
66681;BME280;53575;51.366;12.350;2023-02-14T05:52:25;102313.75;;;3.13;100.00
66681;BME280;53575;51.366;12.350;2023-02-14T05:54:50;102317.84;;;3.09;100.00
66681;BME280;53575;51.366;12.350;2023-02-14T05:57:16;102328.28;;;2.96;100.00
66681;BME280;53575;51.366;12.350;2023-02-14T05:59:41;102320.06;;;3.18;100.00
66681;BME280;53575;51.366;12.350;2023-02-14T06:02:07;102324.78;;;3.25;100.00
66681;BME280;53575;51.366;12.350;2023-02-14T06:04:32;102335.19;;;3.27;100.00
66681;BME280;53575;51.366;12.350;2023-02-14T06:06:58;102328.13;;;3.24;100.00
66681;BME280;53575;51.366;12.350;2023-02-14T06:09:23;102326.78;;;3.31;100.00
66681;BME280;53575;51.366;12.350;2023-02-14T06:11:49;102331.47;;;3.22;100.00
66681;BME280;53575;51.366;12.350;2023-02-14T06:14:14;102330.00;;;3.27;100.00
66681;BME280;53575;51.366;12.350;2023-02-14T06:16:39;102336.31;;;3.32;100.00
66681;BME280;53575;51.366;12.350;2023-02-14T06:19:05;102333.59;;;3.29;100.00
66681;BME280;53575;51.366;12.350;2023-02-14T06:21:30;102327.84;;;3.34;100.00
66681;BME280;53575;51.366;12.350;2023-02-14T06:23:56;102337.38;;;3.35;100.00
66681;BME280;53575;51.366;12.350;2023-02-14T06:26:21;102327.31;;;3.40;100.00
66681;BME280;53575;51.366;12.350;2023-02-14T06:28:52;102327.22;;;3.38;100.00
66681;BME280;53575;51.366;12.350;2023-02-14T06:31:17;102336.50;;;3.35;100.00
66681;BME280;53575;51.366;12.350;2023-02-14T06:33:43;102331.16;;;3.32;100.00
66681;BME280;53575;51.366;12.350;2023-02-14T06:36:08;102330.19;;;3.30;100.00
66681;BME280;53575;51.366;12.350;2023-02-14T06:38:34;102329.84;;;3.24;100.00
66681;BME280;53575;51.366;12.350;2023-02-14T06:41:06;102333.19;;;3.37;100.00
66681;BME280;53575;51.366;12.350;2023-02-14T06:43:33;102334.16;;;3.39;100.00
66681;BME280;53575;51.366;12.350;2023-02-14T06:45:59;102335.06;;;3.40;100.00
66681;BME280;53575;51.366;12.350;2023-02-14T06:48:25;102338.44;;;3.39;100.00
66681;BME280;53575;51.366;12.350;2023-02-14T06:50:50;102332.50;;;3.56;100.00
66681;BME280;53575;51.366;12.350;2023-02-14T06:53:17;102334.94;;;3.53;100.00
66681;BME280;53575;51.366;12.350;2023-02-14T06:55:42;102324.09;;;3.44;100.00
66681;BME280;53575;51.366;12.350;2023-02-14T06:58:08;102318.13;;;3.61;100.00
66681;BME280;53575;51.366;12.350;2023-02-14T07:00:33;102329.13;;;3.57;100.00
66681;BME280;53575;51.366;12.350;2023-02-14T07:02:59;102326.69;;;3.60;100.00
66681;BME280;53575;51.366;12.350;2023-02-14T07:05:24;102320.00;;;3.64;100.00
66681;BME280;53575;51.366;12.350;2023-02-14T07:07:50;102326.66;;;3.75;100.00
66681;BME280;53575;51.366;12.350;2023-02-14T07:10:15;102325.53;;;3.86;100.00
66681;BME280;53575;51.366;12.350;2023-02-14T07:12:41;102319.94;;;3.95;100.00
66681;BME280;53575;51.366;12.350;2023-02-14T07:15:08;102318.06;;;3.92;100.00
66681;BME280;53575;51.366;12.350;2023-02-14T07:17:34;102322.75;;;4.00;100.00
66681;BME280;53575;51.366;12.350;2023-02-14T07:19:59;102318.81;;;4.06;100.00
66681;BME280;53575;51.366;12.350;2023-02-14T07:22:25;102321.47;;;4.08;100.00
66681;BME280;53575;51.366;12.350;2023-02-14T07:24:50;102322.28;;;4.07;100.00
66681;BME280;53575;51.366;12.350;2023-02-14T07:27:16;102317.34;;;4.11;100.00
66681;BME280;53575;51.366;12.350;2023-02-14T07:29:41;102319.78;;;4.08;99.86
66681;BME280;53575;51.366;12.350;2023-02-14T07:32:07;102322.38;;;4.08;99.77
66681;BME280;53575;51.366;12.350;2023-02-14T07:34:32;102314.13;;;3.99;100.00
66681;BME280;53575;51.366;12.350;2023-02-14T07:36:58;102317.81;;;4.04;100.00
66681;BME280;53575;51.366;12.350;2023-02-14T07:39:23;102308.41;;;4.05;100.00
66681;BME280;53575;51.366;12.350;2023-02-14T07:41:49;102310.63;;;4.15;100.00
66681;BME280;53575;51.366;12.350;2023-02-14T07:44:14;102313.84;;;4.27;100.00
66681;BME280;53575;51.366;12.350;2023-02-14T07:46:40;102305.91;;;4.40;100.00
66681;BME280;53575;51.366;12.350;2023-02-14T07:49:05;102311.09;;;4.40;99.07
66681;BME280;53575;51.366;12.350;2023-02-14T07:51:30;102310.38;;;4.43;98.58
66681;BME280;53575;51.366;12.350;2023-02-14T07:53:56;102306.38;;;4.50;99.29
66681;BME280;53575;51.366;12.350;2023-02-14T07:56:21;102304.59;;;4.49;99.80
66681;BME280;53575;51.366;12.350;2023-02-14T07:58:47;102304.94;;;4.38;98.63
66681;BME280;53575;51.366;12.350;2023-02-14T08:01:14;102302.16;;;4.52;98.48
66681;BME280;53575;51.366;12.350;2023-02-14T08:03:40;102304.16;;;4.57;97.59
66681;BME280;53575;51.366;12.350;2023-02-14T08:06:05;102298.47;;;4.64;97.21
66681;BME280;53575;51.366;12.350;2023-02-14T08:08:31;102295.88;;;4.64;98.12
66681;BME280;53575;51.366;12.350;2023-02-14T08:10:57;102305.97;;;4.76;97.49
66681;BME280;53575;51.366;12.350;2023-02-14T08:13:23;102300.28;;;4.83;96.16
66681;BME280;53575;51.366;12.350;2023-02-14T08:15:48;102306.28;;;4.82;96.19
66681;BME280;53575;51.366;12.350;2023-02-14T08:18:31;102307.53;;;4.91;96.89
66681;BME280;53575;51.366;12.350;2023-02-14T08:20:57;102317.75;;;5.05;96.54
66681;BME280;53575;51.366;12.350;2023-02-14T08:23:22;102307.78;;;5.13;96.30
66681;BME280;53575;51.366;12.350;2023-02-14T08:25:48;102308.34;;;5.07;94.94
66681;BME280;53575;51.366;12.350;2023-02-14T08:28:14;102306.28;;;5.18;94.39
66681;BME280;53575;51.366;12.350;2023-02-14T08:30:40;102307.78;;;5.13;93.39
66681;BME280;53575;51.366;12.350;2023-02-14T08:33:06;102308.06;;;5.19;94.39
66681;BME280;53575;51.366;12.350;2023-02-14T08:35:32;102303.25;;;5.27;95.23
66681;BME280;53575;51.366;12.350;2023-02-14T08:37:58;102291.38;;;5.50;94.70
66681;BME280;53575;51.366;12.350;2023-02-14T08:40:24;102295.53;;;5.66;94.25
66681;BME280;53575;51.366;12.350;2023-02-14T08:42:49;102294.88;;;5.70;91.70
66681;BME280;53575;51.366;12.350;2023-02-14T08:45:15;102304.34;;;5.69;91.57
66681;BME280;53575;51.366;12.350;2023-02-14T08:47:40;102292.63;;;5.77;92.29
66681;BME280;53575;51.366;12.350;2023-02-14T08:50:13;102308.72;;;5.90;91.30
66681;BME280;53575;51.366;12.350;2023-02-14T08:52:39;102292.28;;;5.89;91.17
66681;BME280;53575;51.366;12.350;2023-02-14T08:55:06;102288.69;;;6.05;90.75
66681;BME280;53575;51.366;12.350;2023-02-14T08:57:31;102292.34;;;6.10;89.35
66681;BME280;53575;51.366;12.350;2023-02-14T08:59:57;102289.41;;;6.22;89.46
66681;BME280;53575;51.366;12.350;2023-02-14T09:02:22;102289.34;;;6.20;89.15
66681;BME280;53575;51.366;12.350;2023-02-14T09:04:48;102286.75;;;6.20;88.67
66681;BME280;53575;51.366;12.350;2023-02-14T09:07:14;102292.91;;;6.22;88.70
66681;BME280;53575;51.366;12.350;2023-02-14T09:09:39;102293.00;;;6.25;88.91
66681;BME280;53575;51.366;12.350;2023-02-14T09:12:06;102288.97;;;6.32;89.43
66681;BME280;53575;51.366;12.350;2023-02-14T09:14:41;102293.16;;;6.28;89.46
66681;BME280;53575;51.366;12.350;2023-02-14T09:17:11;102287.78;;;6.45;89.46
66681;BME280;53575;51.366;12.350;2023-02-14T09:19:37;102292.81;;;6.61;88.60
66681;BME280;53575;51.366;12.350;2023-02-14T09:22:05;102296.75;;;6.72;87.26
66681;BME280;53575;51.366;12.350;2023-02-14T09:24:32;102299.50;;;6.75;86.41
66681;BME280;53575;51.366;12.350;2023-02-14T09:26:58;102298.13;;;6.85;86.92
66681;BME280;53575;51.366;12.350;2023-02-14T09:29:24;102309.84;;;6.96;85.76
66681;BME280;53575;51.366;12.350;2023-02-14T09:31:54;102304.34;;;6.89;86.26
66681;BME280;53575;51.366;12.350;2023-02-14T09:34:20;102304.63;;;6.95;86.20
66681;BME280;53575;51.366;12.350;2023-02-14T09:37:04;102303.81;;;7.18;85.71
66681;BME280;53575;51.366;12.350;2023-02-14T09:39:30;102298.34;;;7.12;86.05
66681;BME280;53575;51.366;12.350;2023-02-14T09:44:38;102296.13;;;7.44;84.78
66681;BME280;53575;51.366;12.350;2023-02-14T09:49:58;102302.16;;;7.65;84.80
66681;BME280;53575;51.366;12.350;2023-02-14T09:52:27;102287.94;;;7.79;83.10
66681;BME280;53575;51.366;12.350;2023-02-14T09:54:57;102280.53;;;7.90;82.59
66681;BME280;53575;51.366;12.350;2023-02-14T10:00:41;102283.44;;;7.99;82.25
66681;BME280;53575;51.366;12.350;2023-02-14T10:05:56;102292.31;;;8.28;81.77
66681;BME280;53575;51.366;12.350;2023-02-14T10:11:18;102284.50;;;8.04;82.19
66681;BME280;53575;51.366;12.350;2023-02-14T10:16:51;102296.06;;;7.65;84.30
66681;BME280;53575;51.366;12.350;2023-02-14T10:21:54;102292.16;;;7.53;85.06
66681;BME280;53575;51.366;12.350;2023-02-14T10:24:31;102281.66;;;7.74;85.22
66681;BME280;53575;51.366;12.350;2023-02-14T10:29:54;102282.78;;;7.35;86.45
66681;BME280;53575;51.366;12.350;2023-02-14T10:32:48;102280.13;;;7.33;86.72
66681;BME280;53575;51.366;12.350;2023-02-14T10:35:26;102283.94;;;7.43;86.49
66681;BME280;53575;51.366;12.350;2023-02-14T10:40:58;102279.91;;;7.51;85.48
66681;BME280;53575;51.366;12.350;2023-02-14T10:43:47;102270.59;;;7.56;85.90
66681;BME280;53575;51.366;12.350;2023-02-14T10:49:40;102269.31;;;7.45;86.38
66681;BME280;53575;51.366;12.350;2023-02-14T10:54:39;102264.56;;;7.57;86.11
66681;BME280;53575;51.366;12.350;2023-02-14T10:57:13;102264.28;;;7.73;85.88
66681;BME280;53575;51.366;12.350;2023-02-14T11:02:16;102255.03;;;7.81;85.46
66681;BME280;53575;51.366;12.350;2023-02-14T11:04:43;102259.75;;;7.92;84.82
66681;BME280;53575;51.366;12.350;2023-02-14T11:07:16;102256.53;;;7.99;84.89
66681;BME280;53575;51.366;12.350;2023-02-14T11:09:42;102257.56;;;8.04;84.80
66681;BME280;53575;51.366;12.350;2023-02-14T11:12:07;102261.94;;;8.05;84.34
66681;BME280;53575;51.366;12.350;2023-02-14T11:14:37;102249.91;;;8.09;83.71
66681;BME280;53575;51.366;12.350;2023-02-14T11:17:29;102253.06;;;8.24;83.62
66681;BME280;53575;51.366;12.350;2023-02-14T11:20:00;102248.19;;;8.33;83.18
66681;BME280;53575;51.366;12.350;2023-02-14T11:22:31;102244.09;;;8.40;82.52
66681;BME280;53575;51.366;12.350;2023-02-14T11:25:27;102240.84;;;8.47;82.41
66681;BME280;53575;51.366;12.350;2023-02-14T11:28:00;102231.34;;;8.47;82.25
66681;BME280;53575;51.366;12.350;2023-02-14T11:30:30;102236.69;;;8.52;81.69
66681;BME280;53575;51.366;12.350;2023-02-14T11:32:57;102234.19;;;8.55;82.02
66681;BME280;53575;51.366;12.350;2023-02-14T11:35:24;102226.69;;;8.66;81.37
66681;BME280;53575;51.366;12.350;2023-02-14T11:37:55;102220.66;;;8.67;81.59
66681;BME280;53575;51.366;12.350;2023-02-14T11:40:37;102223.91;;;8.87;79.94
66681;BME280;53575;51.366;12.350;2023-02-14T11:45:36;102219.97;;;8.72;79.89
66681;BME280;53575;51.366;12.350;2023-02-14T11:48:26;102209.41;;;8.68;80.35
66681;BME280;53575;51.366;12.350;2023-02-14T11:51:01;102209.59;;;8.74;80.16
66681;BME280;53575;51.366;12.350;2023-02-14T11:53:35;102207.31;;;8.85;79.75
66681;BME280;53575;51.366;12.350;2023-02-14T11:56:03;102204.41;;;8.74;80.33
66681;BME280;53575;51.366;12.350;2023-02-14T12:00:57;102200.00;;;8.73;80.02
66681;BME280;53575;51.366;12.350;2023-02-14T12:03:25;102197.50;;;8.76;79.68
66681;BME280;53575;51.366;12.350;2023-02-14T12:05:52;102187.50;;;8.90;79.49
66681;BME280;53575;51.366;12.350;2023-02-14T12:08:26;102192.63;;;8.87;79.92
66681;BME280;53575;51.366;12.350;2023-02-14T12:11:23;102184.31;;;9.00;79.41
66681;BME280;53575;51.366;12.350;2023-02-14T12:13:55;102182.00;;;9.09;79.43
66681;BME280;53575;51.366;12.350;2023-02-14T12:16:34;102187.69;;;9.24;78.58
66681;BME280;53575;51.366;12.350;2023-02-14T12:19:08;102188.06;;;9.38;77.78
66681;BME280;53575;51.366;12.350;2023-02-14T12:24:28;102182.16;;;9.44;77.48
66681;BME280;53575;51.366;12.350;2023-02-14T12:32:15;102171.81;;;9.47;77.17
66681;BME280;53575;51.366;12.350;2023-02-14T12:34:44;102168.16;;;9.42;76.84
66681;BME280;53575;51.366;12.350;2023-02-14T12:37:15;102162.88;;;9.39;76.92
66681;BME280;53575;51.366;12.350;2023-02-14T12:45:24;102148.91;;;9.38;76.89
66681;BME280;53575;51.366;12.350;2023-02-14T12:50:42;102147.47;;;9.48;76.44
66681;BME280;53575;51.366;12.350;2023-02-14T13:10:14;102133.25;;;9.38;76.76
66681;BME280;53575;51.366;12.350;2023-02-14T13:13:06;102126.72;;;9.52;76.40
66681;BME280;53575;51.366;12.350;2023-02-14T13:18:34;102122.22;;;9.80;75.18
66681;BME280;53575;51.366;12.350;2023-02-14T13:21:05;102115.13;;;9.74;75.40
66681;BME280;53575;51.366;12.350;2023-02-14T13:23:41;102110.66;;;9.70;75.68
66681;BME280;53575;51.366;12.350;2023-02-14T13:26:18;102114.38;;;9.80;75.14
66681;BME280;53575;51.366;12.350;2023-02-14T13:31:14;102107.84;;;9.96;74.16
66681;BME280;53575;51.366;12.350;2023-02-14T13:33:43;102111.34;;;9.96;74.26
66681;BME280;53575;51.366;12.350;2023-02-14T13:36:12;102103.16;;;9.84;74.16
66681;BME280;53575;51.366;12.350;2023-02-14T13:38:47;102110.00;;;9.79;74.87
66681;BME280;53575;51.366;12.350;2023-02-14T13:41:15;102107.47;;;9.81;75.58
66681;BME280;53575;51.366;12.350;2023-02-14T13:46:18;102103.53;;;9.98;74.19
66681;BME280;53575;51.366;12.350;2023-02-14T13:49:15;102101.78;;;9.97;74.49
66681;BME280;53575;51.366;12.350;2023-02-14T13:51:49;102094.91;;;10.00;74.67
66681;BME280;53575;51.366;12.350;2023-02-14T13:57:24;102091.41;;;10.00;74.08
66681;BME280;53575;51.366;12.350;2023-02-14T14:02:48;102083.41;;;9.94;75.40
66681;BME280;53575;51.366;12.350;2023-02-14T14:10:46;102085.81;;;9.86;75.51
66681;BME280;53575;51.366;12.350;2023-02-14T14:16:25;102087.47;;;9.83;75.79
66681;BME280;53575;51.366;12.350;2023-02-14T14:19:32;102089.91;;;9.76;76.51
66681;BME280;53575;51.366;12.350;2023-02-14T14:24:28;102085.91;;;9.89;74.98
66681;BME280;53575;51.366;12.350;2023-02-14T14:31:53;102079.16;;;9.64;75.80
66681;BME280;53575;51.366;12.350;2023-02-14T14:34:26;102080.97;;;9.67;75.95
66681;BME280;53575;51.366;12.350;2023-02-14T14:37:05;102078.75;;;9.49;76.41
66681;BME280;53575;51.366;12.350;2023-02-14T14:39:33;102074.00;;;9.33;77.07
66681;BME280;53575;51.366;12.350;2023-02-14T14:42:13;102075.50;;;9.24;77.69
66681;BME280;53575;51.366;12.350;2023-02-14T14:47:16;102067.72;;;9.26;77.25
66681;BME280;53575;51.366;12.350;2023-02-14T14:49:42;102073.03;;;9.31;77.24
66681;BME280;53575;51.366;12.350;2023-02-14T14:52:22;102066.44;;;9.12;78.24
66681;BME280;53575;51.366;12.350;2023-02-14T14:54:48;102063.03;;;9.14;78.64
66681;BME280;53575;51.366;12.350;2023-02-14T14:57:16;102064.81;;;9.15;78.54
66681;BME280;53575;51.366;12.350;2023-02-14T14:59:42;102066.53;;;9.15;78.20
66681;BME280;53575;51.366;12.350;2023-02-14T15:02:26;102066.31;;;9.07;78.92
66681;BME280;53575;51.366;12.350;2023-02-14T15:04:52;102063.88;;;9.13;78.61
66681;BME280;53575;51.366;12.350;2023-02-14T15:07:20;102067.88;;;9.00;79.05
66681;BME280;53575;51.366;12.350;2023-02-14T15:09:51;102065.88;;;8.92;79.39
66681;BME280;53575;51.366;12.350;2023-02-14T15:12:20;102066.53;;;8.85;79.29
66681;BME280;53575;51.366;12.350;2023-02-14T15:15:06;102061.75;;;8.70;79.84
66681;BME280;53575;51.366;12.350;2023-02-14T15:17:36;102056.09;;;8.54;80.64
66681;BME280;53575;51.366;12.350;2023-02-14T15:20:06;102057.66;;;8.48;80.94
66681;BME280;53575;51.366;12.350;2023-02-14T15:22:44;102055.19;;;8.52;80.91
66681;BME280;53575;51.366;12.350;2023-02-14T15:25:23;102045.22;;;8.39;81.53
66681;BME280;53575;51.366;12.350;2023-02-14T15:27:50;102037.94;;;8.29;82.35